Time;durP1;ratioP1;P1;durP2;ratioP2;P2;SDS_P1;SDS_P2;PMS_P1;PMS_P2;Temp;Humidity;BMP_temperature;BMP_pressure;BME280_temperature;BME280_humidity;BME280_pressure;Samples;Min_cycle;Max_cycle;Signal;HPM_P1;HPM_P2
2022/01/06 00:04:25;;;;;;;9.73;3.23;;;5.90;91.60;;;;;;20829800;28;20625;-67
2022/01/06 00:24:48;;;;;;;16.23;3.47;;;5.90;92.10;;;;;;20828845;28;20213;-63
2022/01/06 00:34:49;;;;;;;8.27;3.33;;;6.00;92.20;;;;;;20828959;28;20237;-66
2022/01/06 00:44:51;;;;;;;6.27;3.13;;;6.00;92.40;;;;;;20844777;28;20611;-66
2022/01/06 00:54:52;;;;;;;6.10;2.80;;;6.00;92.80;;;;;;20842911;28;20245;-69
2022/01/06 01:04:54;;;;;;;7.50;2.97;;;6.10;93.30;;;;;;20842944;28;20575;-67
2022/01/06 01:15:00;;;;;;;8.20;3.00;;;6.10;93.20;;;;;;20841603;28;20231;-64
2022/01/06 01:25:01;;;;;;;7.27;3.10;;;5.80;93.40;;;;;;20837038;28;20561;-66
2022/01/06 01:35:05;;;;;;;5.47;2.97;;;5.70;94.30;;;;;;20840710;28;20237;-65
2022/01/06 01:45:08;;;;;;;6.57;3.00;;;5.70;94.40;;;;;;20839121;28;20263;-64
2022/01/06 01:55:14;;;;;;;6.53;2.73;;;5.70;94.40;;;;;;20837935;28;20241;-68
2022/01/06 02:05:22;;;;;;;9.43;3.40;;;5.70;94.80;;;;;;20837768;28;20212;-64
2022/01/06 02:15:24;;;;;;;7.10;3.27;;;5.70;94.80;;;;;;20836864;28;20238;-66
2022/01/06 02:25:29;;;;;;;5.67;3.13;;;5.70;94.90;;;;;;20836273;28;20209;-66
2022/01/06 02:35:33;;;;;;;6.30;3.00;;;5.70;95.00;;;;;;20837494;28;20238;-66
2022/01/06 02:45:36;;;;;;;5.93;2.80;;;5.80;94.80;;;;;;20835041;28;20637;-68
2022/01/06 02:55:53;;;;;;;6.80;2.73;;;5.80;95.10;;;;;;20833927;28;20302;-63
2022/01/06 03:06:15;;;;;;;7.13;3.00;;;5.80;94.70;;;;;;20832823;28;20209;-64
2022/01/06 03:16:16;;;;;;;8.57;3.07;;;5.70;94.70;;;;;;20832103;28;20284;-66
2022/01/06 03:26:18;;;;;;;9.63;3.73;;;5.80;94.60;;;;;;20827217;28;20207;-63
2022/01/06 03:36:21;;;;;;;10.67;3.77;;;;;;;;;;20831518;28;20789;-66
2022/01/06 03:46:22;;;;;;;7.97;3.27;;;5.60;94.80;;;;;;20830720;28;20210;-67
2022/01/06 03:56:24;;;;;;;9.67;3.33;;;5.50;94.70;;;;;;20832848;28;20647;-68
2022/01/06 04:06:26;;;;;;;11.50;3.00;;;5.50;95.00;;;;;;20829011;28;20258;-66
2022/01/06 04:16:29;;;;;;;5.87;2.93;;;5.50;95.10;;;;;;20831363;28;20586;-67
2022/01/06 04:26:31;;;;;;;7.20;2.90;;;5.60;94.50;;;;;;20848127;28;20205;-68
2022/01/06 04:36:33;;;;;;;10.53;3.07;;;5.60;94.80;;;;;;20845754;28;20236;-64
2022/01/06 04:46:35;;;;;;;8.87;3.00;;;5.60;94.70;;;;;;20842531;28;20209;-64
2022/01/06 04:56:37;;;;;;;9.90;2.90;;;5.50;94.40;;;;;;20841564;28;20588;-64
2022/01/06 05:06:39;;;;;;;8.53;2.83;;;5.50;94.60;;;;;;20842653;28;20736;-66
2022/01/06 05:16:40;;;;;;;8.23;2.97;;;5.50;94.20;;;;;;20841442;28;20295;-66
2022/01/06 05:26:42;;;;;;;11.63;2.90;;;5.40;94.20;;;;;;20836361;28;20209;-65
2022/01/06 05:36:44;;;;;;;13.40;2.77;;;5.50;94.30;;;;;;20840287;28;20632;-65
2022/01/06 05:46:47;;;;;;;7.77;3.17;;;5.60;94.30;;;;;;20839636;28;20212;-70
2022/01/06 05:56:49;;;;;;;8.10;3.20;;;5.60;94.60;;;;;;20838300;28;20295;-65
2022/01/06 06:06:51;;;;;;;7.50;2.90;;;5.70;94.10;;;;;;20837990;28;20268;-66
2022/01/06 06:16:52;;;;;;;9.77;3.33;;;5.70;94.50;;;;;;20836795;28;20274;-64
2022/01/06 06:26:54;;;;;;;12.27;5.40;;;5.70;94.30;;;;;;20836020;28;20292;-64
2022/01/06 06:36:56;;;;;;;11.10;3.40;;;5.50;94.20;;;;;;20835736;28;20237;-65
2022/01/06 06:46:57;;;;;;;9.93;3.27;;;5.50;94.60;;;;;;20860641;28;20201;-66
2022/01/06 06:56:59;;;;;;;12.10;3.90;;;5.50;94.60;;;;;;20871127;28;20650;-64
2022/01/06 07:07:01;;;;;;;14.03;3.20;;;5.50;94.60;;;;;;20915828;28;20265;-67
2022/01/06 07:17:03;;;;;;;12.27;4.40;;;5.40;94.60;;;;;;20911336;28;20509;-67
2022/01/06 07:27:05;;;;;;;9.93;3.40;;;5.80;94.90;;;;;;20917590;28;20258;-70
2022/01/06 07:37:07;;;;;;;13.37;3.63;;;5.40;94.60;;;;;;20846206;28;20237;-67
2022/01/06 07:47:09;;;;;;;9.63;3.20;;;5.50;94.60;;;;;;20829513;28;20569;-73
2022/01/06 07:57:11;;;;;;;7.57;3.53;;;5.50;94.70;;;;;;20845418;28;20772;-75
2022/01/06 08:07:13;;;;;;;15.63;3.80;;;5.60;95.10;;;;;;20830347;28;20208;-69
2022/01/06 08:17:14;;;;;;;11.30;3.87;;;5.50;94.90;;;;;;20893015;28;20236;-70
2022/01/06 08:27:16;;;;;;;12.10;3.70;;;5.40;95.30;;;;;;20821561;28;20301;-64
2022/01/06 08:37:18;;;;;;;11.93;5.13;;;5.70;95.00;;;;;;20825230;28;20239;-65
2022/01/06 08:56:59;;;;;;;13.13;4.10;;;6.00;95.10;;;;;;20984298;28;20558;-65
2022/01/06 09:07:03;;;;;;;29.90;13.60;;;6.10;95.00;;;;;;20982115;28;20259;-68
2022/01/06 09:17:04;;;;;;;7.17;3.20;;;6.30;94.80;;;;;;20942250;28;20214;-68
2022/01/06 09:27:06;;;;;;;13.10;3.73;;;6.60;94.90;;;;;;20981672;28;20219;-66
2022/01/06 09:37:08;;;;;;;10.37;3.80;;;6.60;93.50;;;;;;20908581;28;20612;-67
2022/01/06 09:47:10;;;;;;;12.23;3.47;;;6.40;92.90;;;;;;20897572;28;20210;-64
2022/01/06 09:57:32;;;;;;;13.67;3.40;;;6.40;92.80;;;;;;20898093;28;20222;-65
2022/01/06 10:07:39;;;;;;;7.03;3.00;;;6.70;92.60;;;;;;20867867;28;20278;-65
2022/01/06 10:17:41;;;;;;;7.70;3.27;;;6.50;92.40;;;;;;20923253;28;20214;-66
2022/01/06 10:27:45;;;;;;;8.63;3.73;;;6.70;92.60;;;;;;20922087;28;20222;-65
2022/01/06 10:37:49;;;;;;;9.93;3.00;;;6.50;91.60;;;;;;20849917;28;20215;-64
2022/01/06 10:47:57;;;;;;;10.90;3.20;;;6.90;91.60;;;;;;20838373;28;20776;-64
2022/01/06 10:58:16;;;;;;;9.40;3.03;;;6.90;90.60;;;;;;20837517;28;20604;-63
2022/01/06 11:08:21;;;;;;;9.73;3.07;;;6.60;90.20;;;;;;20862939;28;20282;-63
2022/01/06 11:18:23;;;;;;;7.10;2.87;;;6.50;90.30;;;;;;20917649;28;20673;-64
2022/01/06 11:28:30;;;;;;;8.40;2.70;;;6.50;90.30;;;;;;20917430;28;20288;-65
2022/01/06 11:38:32;;;;;;;8.60;2.80;;;6.30;90.00;;;;;;20916638;28;20717;-67
2022/01/06 11:48:49;;;;;;;8.30;2.90;;;6.30;89.40;;;;;;20915699;28;20290;-65
2022/01/06 11:59:03;;;;;;;6.93;3.00;;;6.40;89.70;;;;;;20913358;28;20612;-65
2022/01/06 12:09:23;;;;;;;6.87;2.57;;;7.00;89.10;;;;;;20879303;28;20755;-64
2022/01/06 12:19:25;;;;;;;4.83;2.10;;;7.50;87.50;;;;;;20835306;28;20208;-67
2022/01/06 12:29:27;;;;;;;6.63;2.60;;;7.70;84.80;;;;;;20835634;28;20651;-64
2022/01/06 12:39:28;;;;;;;4.60;2.23;;;8.20;82.60;;;;;;20910806;28;20211;-64
2022/01/06 12:49:30;;;;;;;8.27;2.73;;;8.20;81.50;;;;;;20912294;28;20240;-65
2022/01/06 12:59:36;;;;;;;6.57;2.63;;;8.20;81.10;;;;;;20906218;28;20203;-64
2022/01/06 13:09:40;;;;;;;4.73;2.03;;;7.20;79.00;;;;;;20826810;28;20242;-65
2022/01/06 13:20:05;;;;;;;4.53;2.13;;;7.10;79.50;;;;;;20828925;28;20202;-63
2022/01/06 13:30:08;;;;;;;5.37;2.37;;;7.10;79.60;;;;;;20828191;28;20278;-65
2022/01/06 13:40:11;;;;;;;9.13;2.83;;;7.20;79.00;;;;;;20841767;28;20215;-65
2022/01/06 14:00:36;;;;;;;4.93;2.40;;;6.80;75.50;;;;;;20882917;28;20611;-72
2022/01/06 14:10:40;;;;;;;8.80;2.70;;;6.80;76.30;;;;;;20836753;28;20229;-68
2022/01/06 14:20:41;;;;;;;8.13;3.07;;;6.70;77.20;;;;;;20840543;28;20210;-66
2022/01/06 14:30:43;;;;;;;6.93;2.10;;;6.60;78.30;;;;;;20839615;28;20641;-65
2022/01/06 14:40:45;;;;;;;7.67;2.40;;;6.60;79.10;;;;;;20839078;28;20238;-66
2022/01/06 14:50:49;;;;;;;6.47;2.40;;;6.60;78.50;;;;;;20838468;28;20237;-63
2022/01/06 15:00:51;;;;;;;14.50;4.63;;;6.70;79.10;;;;;;20837990;28;20197;-68
2022/01/06 15:10:53;;;;;;;14.37;5.87;;;6.40;79.50;;;;;;20833269;28;20265;-66
2022/01/06 15:20:56;;;;;;;10.60;3.33;;;6.40;80.20;;;;;;20835670;28;20210;-66
2022/01/06 15:30:58;;;;;;;7.87;3.30;;;6.30;81.10;;;;;;20835033;28;20700;-66
2022/01/06 15:41:00;;;;;;;7.73;4.03;;;6.10;81.00;;;;;;20834244;28;20216;-65
2022/01/06 15:51:02;;;;;;;16.87;7.87;;;5.90;81.40;;;;;;20833604;28;20245;-65
2022/01/06 16:01:21;;;;;;;11.23;5.50;;;5.90;82.70;;;;;;20832412;28;20213;-64
2022/01/06 16:11:43;;;;;;;18.73;7.40;;;5.60;83.50;;;;;;20832138;28;20255;-69
2022/01/06 16:21:44;;;;;;;15.67;6.70;;;5.40;85.10;;;;;;20911992;28;20249;-68
2022/01/06 16:31:50;;;;;;;14.20;7.13;;;5.30;85.00;;;;;;20887222;28;20287;-68
2022/01/06 16:41:52;;;;;;;14.37;7.87;;;5.10;85.50;;;;;;20891901;28;20571;-65
2022/01/06 16:51:53;;;;;;;19.50;8.50;;;4.90;86.20;;;;;;20852865;28;20243;-67
2022/01/06 17:01:55;;;;;;;17.87;8.83;;;4.80;86.30;;;;;;20899816;28;20254;-67
2022/01/06 17:11:58;;;;;;;34.77;14.50;;;4.70;87.10;;;;;;20832777;28;20737;-66
2022/01/06 17:21:59;;;;;;;25.90;10.57;;;4.50;87.60;;;;;;20847000;28;20205;-64
2022/01/06 17:32:01;;;;;;;26.07;12.30;;;4.40;88.30;;;;;;20850853;28;20703;-66
2022/01/06 17:42:06;;;;;;;28.93;12.00;;;4.50;88.50;;;;;;20918231;28;20695;-68
2022/01/06 17:52:08;;;;;;;25.87;12.90;;;4.50;88.80;;;;;;20924987;28;20286;-69
2022/01/06 18:02:11;;;;;;;30.40;14.40;;;4.20;89.30;;;;;;20924703;28;20203;-69
2022/01/06 18:12:13;;;;;;;29.80;14.60;;;4.20;89.50;;;;;;20923462;28;20271;-63
2022/01/06 18:22:15;;;;;;;28.97;14.73;;;4.20;89.90;;;;;;20922542;28;20613;-67
2022/01/06 18:32:17;;;;;;;23.97;13.60;;;4.20;90.20;;;;;;20922501;28;20297;-67
2022/01/06 18:42:19;;;;;;;28.50;13.43;;;4.10;90.30;;;;;;20921435;28;20230;-70
2022/01/06 18:52:20;;;;;;;28.13;15.00;;;3.90;90.30;;;;;;20918141;28;20313;-72
2022/01/06 19:02:23;;;;;;;28.37;12.93;;;3.80;90.50;;;;;;20910078;28;20200;-67
2022/01/06 19:12:25;;;;;;;27.03;13.30;;;3.60;90.70;;;;;;20833643;28;20703;-67
2022/01/06 19:22:27;;;;;;;28.60;15.07;;;3.50;90.80;;;;;;20834738;28;20223;-66
2022/01/06 19:32:29;;;;;;;31.70;15.43;;;3.40;91.10;;;;;;20832936;28;20290;-67
2022/01/06 19:42:31;;;;;;;34.80;16.97;;;3.40;91.30;;;;;;20834219;28;20207;-68
2022/01/06 19:52:33;;;;;;;34.63;15.33;;;3.30;91.30;;;;;;20833246;28;20602;-68
2022/01/06 20:02:34;;;;;;;35.07;16.93;;;3.30;91.60;;;;;;20833183;28;20258;-69
2022/01/06 20:12:36;;;;;;;23.90;13.63;;;3.20;91.40;;;;;;20832371;28;20233;-69
2022/01/06 20:22:42;;;;;;;26.87;14.33;;;3.20;91.80;;;;;;20887280;28;20262;-68
2022/01/06 20:32:45;;;;;;;27.73;14.00;;;;;;;;;;20908106;28;20227;-67
2022/01/06 20:42:53;;;;;;;28.43;14.37;;;3.10;92.00;;;;;;20871534;28;20200;-67
2022/01/06 20:52:55;;;;;;;29.83;15.17;;;3.10;92.30;;;;;;20856046;28;20240;-68
2022/01/06 21:02:56;;;;;;;26.85;17.40;;;3.10;92.00;;;;;;20898636;28;20453;-67
2022/01/06 21:13:00;;;;;;;24.17;12.70;;;3.00;92.00;;;;;;20878067;28;20690;-64
2022/01/06 21:23:03;;;;;;;25.33;14.00;;;3.00;91.90;;;;;;20908516;28;20214;-64
2022/01/06 21:33:05;;;;;;;34.33;16.30;;;3.00;92.00;;;;;;20908516;28;20236;-66
2022/01/06 21:43:07;;;;;;;27.83;14.30;;;2.90;92.00;;;;;;20886985;28;20605;-67
2022/01/06 21:53:09;;;;;;;32.60;16.60;;;2.90;91.80;;;;;;20824742;28;20298;-64
2022/01/06 22:03:11;;;;;;;37.67;18.17;;;2.80;91.90;;;;;;20837426;28;20213;-67
2022/01/06 22:13:13;;;;;;;32.83;14.27;;;2.70;91.70;;;;;;20837633;28;20737;-64
2022/01/06 22:23:15;;;;;;;25.67;14.33;;;2.70;91.80;;;;;;20841218;28;20212;-66
2022/01/06 22:33:17;;;;;;;31.97;13.63;;;2.50;91.70;;;;;;20838353;28;20228;-63
2022/01/06 22:43:19;;;;;;;31.07;13.87;;;2.50;91.90;;;;;;20859120;28;20362;-64
2022/01/06 22:53:20;;;;;;;29.60;14.57;;;2.50;92.00;;;;;;20918260;28;20286;-63
2022/01/06 23:03:23;;;;;;;26.10;13.43;;;2.50;92.10;;;;;;20913725;28;20247;-63
2022/01/06 23:13:25;;;;;;;26.77;13.57;;;2.50;92.20;;;;;;20834422;28;20289;-63
2022/01/06 23:23:27;;;;;;;23.70;12.63;;;2.50;92.40;;;;;;20843691;28;20761;-65
2022/01/06 23:33:28;;;;;;;42.67;12.80;;;2.40;92.10;;;;;;20835594;28;20232;-65
2022/01/06 23:43:30;;;;;;;27.70;12.83;;;2.40;92.00;;;;;;20858195;28;20253;-64
2022/01/06 23:53:32;;;;;;;24.87;12.30;;;2.30;92.20;;;;;;20915911;28;20287;-62
